createdAt,value
2018-12-13T00:00:50.562Z,31.00
2018-12-13T00:03:19.282Z,31.10
2018-12-13T00:05:47.873Z,31.07
2018-12-13T00:08:16.535Z,30.57
2018-12-13T00:10:45.059Z,34.50
2018-12-13T00:13:13.800Z,35.23
2018-12-13T00:15:42.383Z,36.70
2018-12-13T00:18:10.939Z,34.07
2018-12-13T00:20:39.772Z,33.60
2018-12-13T00:23:08.359Z,31.47
2018-12-13T00:25:36.886Z,30.70
2018-12-13T00:28:05.470Z,31.27
2018-12-13T00:30:34.006Z,29.63
2018-12-13T00:33:02.516Z,29.30
2018-12-13T00:35:31.247Z,28.40
2018-12-13T00:37:59.820Z,29.30
2018-12-13T00:40:28.523Z,29.03
2018-12-13T00:42:57.113Z,29.07
2018-12-13T00:45:25.647Z,30.70
2018-12-13T00:47:54.345Z,37.30
2018-12-13T00:50:22.879Z,36.03
2018-12-13T00:52:51.543Z,37.13
2018-12-13T00:55:20.087Z,33.13
2018-12-13T00:57:48.611Z,32.90
2018-12-13T01:00:17.331Z,30.10
2018-12-13T01:02:45.849Z,30.73
2018-12-13T01:05:14.372Z,29.47
2018-12-13T01:07:42.952Z,30.53
2018-12-13T01:10:11.498Z,31.30
2018-12-13T01:12:40.028Z,31.47
2018-12-13T01:15:08.563Z,31.77
2018-12-13T01:17:37.246Z,30.23
2018-12-13T01:20:06.151Z,31.30
2018-12-13T01:22:34.765Z,31.40
2018-12-13T01:25:03.785Z,31.60
2018-12-13T01:27:32.261Z,31.33
2018-12-13T01:30:01.667Z,33.17
2018-12-13T01:32:30.207Z,31.20
2018-12-13T01:34:58.994Z,32.97
2018-12-13T01:37:27.682Z,34.53
2018-12-13T01:39:56.253Z,31.97
2018-12-13T01:42:24.759Z,33.33
2018-12-13T01:44:53.409Z,34.77
2018-12-13T01:47:21.904Z,32.87
2018-12-13T01:49:50.414Z,33.57
2018-12-13T01:52:19.208Z,34.00
2018-12-13T01:54:47.822Z,33.00
2018-12-13T01:57:16.378Z,33.27
2018-12-13T01:59:45.086Z,32.00
2018-12-13T02:02:13.686Z,32.50
2018-12-13T02:04:42.155Z,34.77
2018-12-13T02:07:10.756Z,33.47
2018-12-13T02:09:39.362Z,32.17
2018-12-13T02:12:07.984Z,31.47
2018-12-13T02:14:36.943Z,31.27
2018-12-13T02:17:05.475Z,31.20
2018-12-13T02:19:34.145Z,31.47
2018-12-13T02:22:02.729Z,29.43
2018-12-13T02:24:31.347Z,33.53
2018-12-13T02:26:59.864Z,31.87
2018-12-13T02:29:29.158Z,33.07
2018-12-13T02:31:58.145Z,32.00
2018-12-13T02:34:26.777Z,32.33
2018-12-13T02:36:55.386Z,30.37
2018-12-13T02:39:23.888Z,31.27
2018-12-13T02:41:52.591Z,33.03
2018-12-13T02:44:21.138Z,32.77
2018-12-13T02:46:49.660Z,32.50
2018-12-13T02:49:18.399Z,32.50
2018-12-13T02:51:47.126Z,33.53
2018-12-13T02:54:15.911Z,33.80
2018-12-13T02:56:44.789Z,33.33
2018-12-13T02:59:13.489Z,33.17
2018-12-13T03:01:42.041Z,33.27
2018-12-13T03:04:10.924Z,32.73
2018-12-13T03:06:39.441Z,32.87
2018-12-13T03:09:08.396Z,33.37
2018-12-13T03:11:37.771Z,35.33
2018-12-13T03:14:06.287Z,37.97
2018-12-13T03:16:34.839Z,37.40
2018-12-13T03:19:03.379Z,36.47
2018-12-13T03:21:31.949Z,35.73
2018-12-13T03:24:00.526Z,35.07
2018-12-13T03:26:29.040Z,35.17
2018-12-13T03:28:57.645Z,35.30
2018-12-13T03:31:26.267Z,34.37
2018-12-13T03:33:55.793Z,35.07
2018-12-13T03:36:24.695Z,35.03
2018-12-13T03:38:53.215Z,36.47
2018-12-13T03:41:21.717Z,37.33
2018-12-13T03:43:50.599Z,38.33
2018-12-13T03:46:19.224Z,36.43
2018-12-13T03:48:47.918Z,38.37
2018-12-13T03:51:17.313Z,37.30
2018-12-13T03:53:45.801Z,39.07
2018-12-13T03:56:14.423Z,40.03
2018-12-13T03:58:42.992Z,40.90
2018-12-13T04:01:11.511Z,38.80
2018-12-13T04:03:40.138Z,39.70
2018-12-13T04:06:08.684Z,41.43
2018-12-13T04:08:37.218Z,42.10
2018-12-13T04:11:05.718Z,43.20
2018-12-13T04:13:34.234Z,42.37
2018-12-13T04:16:02.806Z,43.70
2018-12-13T04:18:31.490Z,43.30
2018-12-13T04:21:00.083Z,45.40
2018-12-13T04:23:28.626Z,44.03
2018-12-13T04:25:57.147Z,45.10
2018-12-13T04:28:25.664Z,45.13
2018-12-13T04:30:54.386Z,46.43
2018-12-13T04:33:22.936Z,47.07
2018-12-13T04:35:51.499Z,46.23
2018-12-13T04:38:20.067Z,46.63
2018-12-13T04:40:48.625Z,48.93
2018-12-13T04:43:17.211Z,49.40
2018-12-13T04:45:45.713Z,49.27
2018-12-13T04:48:14.284Z,51.57
2018-12-13T04:50:42.936Z,49.43
2018-12-13T04:53:11.418Z,48.07
2018-12-13T04:55:40.179Z,50.97
2018-12-13T04:58:08.799Z,49.50
2018-12-13T05:00:37.342Z,49.23
2018-12-13T05:03:06.257Z,50.57
2018-12-13T05:05:34.743Z,49.87
2018-12-13T05:08:03.399Z,48.20
2018-12-13T05:10:43.133Z,49.93
2018-12-13T05:13:12.023Z,50.67
2018-12-13T05:15:40.687Z,51.67
2018-12-13T05:18:09.132Z,51.47
2018-12-13T05:20:37.575Z,50.67
2018-12-13T05:23:06.225Z,51.17
2018-12-13T05:25:34.701Z,50.87
2018-12-13T05:28:03.264Z,51.80
2018-12-13T05:30:31.833Z,50.77
2018-12-13T05:33:00.504Z,51.57
2018-12-13T05:35:28.996Z,50.67
2018-12-13T05:37:57.466Z,51.13
2018-12-13T05:40:26.252Z,50.77
2018-12-13T05:42:54.957Z,53.17
2018-12-13T05:45:23.416Z,50.83
2018-12-13T05:47:51.901Z,50.90
2018-12-13T05:50:20.351Z,50.03
2018-12-13T05:52:48.873Z,50.50
2018-12-13T05:55:17.363Z,49.83
2018-12-13T05:57:45.887Z,51.20
2018-12-13T06:00:14.636Z,51.17
2018-12-13T06:02:43.400Z,49.10
2018-12-13T06:05:11.859Z,50.77
2018-12-13T06:07:40.364Z,50.60
2018-12-13T06:10:08.933Z,49.57
2018-12-13T06:12:37.412Z,51.57
2018-12-13T06:15:07.007Z,48.37
2018-12-13T06:17:35.544Z,56.37
2018-12-13T06:20:05.207Z,53.30
2018-12-13T06:22:33.698Z,51.30
2018-12-13T06:25:02.472Z,53.30
2018-12-13T06:27:31.108Z,51.77
2018-12-13T06:29:59.595Z,52.17
2018-12-13T06:32:28.114Z,52.83
2018-12-13T06:34:56.669Z,53.30
2018-12-13T06:37:25.188Z,52.97
2018-12-13T06:39:53.889Z,53.77
2018-12-13T06:42:22.472Z,52.33
2018-12-13T06:44:51.158Z,52.83
2018-12-13T06:47:19.597Z,52.03
2018-12-13T06:49:48.324Z,52.30
2018-12-13T06:52:16.769Z,51.73
2018-12-13T06:54:46.002Z,52.67
2018-12-13T06:57:14.576Z,52.50
2018-12-13T06:59:43.374Z,51.93
2018-12-13T07:02:11.934Z,51.80
2018-12-13T07:04:40.605Z,53.97
2018-12-13T07:07:09.044Z,55.00
2018-12-13T07:09:37.521Z,56.67
2018-12-13T07:12:06.042Z,58.80
2018-12-13T07:14:34.797Z,57.13
2018-12-13T07:17:03.372Z,59.53
2018-12-13T07:19:31.894Z,59.30
2018-12-13T07:22:00.727Z,61.37
2018-12-13T07:24:29.212Z,61.00
2018-12-13T07:26:58.023Z,57.23
2018-12-13T07:29:26.492Z,59.20
2018-12-13T07:31:55.043Z,60.67
2018-12-13T07:34:23.585Z,60.60
2018-12-13T07:36:53.012Z,59.53
2018-12-13T07:39:21.480Z,61.80
2018-12-13T07:41:50.031Z,60.77
2018-12-13T07:44:18.728Z,60.20
2018-12-13T07:46:47.216Z,59.33
2018-12-13T07:49:15.783Z,63.20
2018-12-13T07:51:44.281Z,66.87
2018-12-13T07:54:13.174Z,64.10
2018-12-13T07:56:42.005Z,68.60
2018-12-13T07:59:10.512Z,73.67
2018-12-13T08:01:39.003Z,74.93
2018-12-13T08:04:07.605Z,78.33
2018-12-13T08:06:36.135Z,74.97
2018-12-13T08:09:07.427Z,74.00
2018-12-13T08:11:35.887Z,76.63
2018-12-13T08:14:04.743Z,73.93
2018-12-13T08:16:33.265Z,75.63
2018-12-13T08:19:01.717Z,78.20
2018-12-13T08:21:30.183Z,79.70
2018-12-13T08:23:58.668Z,77.13
2018-12-13T08:26:27.247Z,82.23
2018-12-13T08:28:55.736Z,80.13
2018-12-13T08:31:24.195Z,80.77
2018-12-13T08:33:53.131Z,82.97
2018-12-13T08:36:21.594Z,84.73
2018-12-13T08:38:50.093Z,78.63
2018-12-13T08:41:18.695Z,83.57
2018-12-13T08:43:47.771Z,82.47
2018-12-13T08:46:16.264Z,81.13
2018-12-13T08:48:45.036Z,82.07
2018-12-13T08:51:13.529Z,80.53
2018-12-13T08:53:42.335Z,80.97
2018-12-13T08:56:10.826Z,83.17
2018-12-13T08:58:39.285Z,76.30
2018-12-13T09:01:07.780Z,80.33
2018-12-13T09:03:36.569Z,76.70
2018-12-13T09:06:05.838Z,82.57
2018-12-13T09:08:34.376Z,84.77
2018-12-13T09:11:02.938Z,85.80
2018-12-13T09:13:31.395Z,78.93
2018-12-13T09:16:00.222Z,82.67
2018-12-13T09:18:28.694Z,78.23
2018-12-13T09:20:57.196Z,77.07
2018-12-13T09:23:25.790Z,74.90
2018-12-13T09:25:54.500Z,77.53
2018-12-13T09:28:22.971Z,74.93
2018-12-13T09:30:51.607Z,79.40
2018-12-13T09:33:20.083Z,76.40
2018-12-13T09:35:48.529Z,78.27
2018-12-13T09:38:17.097Z,76.43
2018-12-13T09:40:45.576Z,76.93
2018-12-13T09:43:14.084Z,76.10
2018-12-13T09:45:42.759Z,77.27
2018-12-13T09:48:11.521Z,79.40
2018-12-13T09:50:40.107Z,79.87
2018-12-13T09:53:08.560Z,77.70
2018-12-13T09:55:37.089Z,77.40
2018-12-13T09:58:06.187Z,76.90
2018-12-13T10:00:34.792Z,82.50
2018-12-13T10:03:03.330Z,80.13
2018-12-13T10:05:31.938Z,81.67
2018-12-13T10:08:00.508Z,86.57
2018-12-13T10:10:29.035Z,89.00
2018-12-13T10:12:57.566Z,81.67
2018-12-13T10:15:31.780Z,89.57
2018-12-13T10:17:56.887Z,87.33
2018-12-13T10:20:25.384Z,87.73
2018-12-13T10:22:53.986Z,90.23
2018-12-13T10:25:22.477Z,94.70
2018-12-13T10:27:51.256Z,89.27
2018-12-13T10:30:19.861Z,87.30
2018-12-13T10:32:48.351Z,84.40
2018-12-13T10:35:16.859Z,84.13
2018-12-13T10:37:45.332Z,90.57
2018-12-13T10:40:14.208Z,87.13
2018-12-13T10:42:42.803Z,83.63
2018-12-13T10:45:11.250Z,79.00
2018-12-13T10:47:39.728Z,85.57
2018-12-13T10:50:08.815Z,82.07
2018-12-13T10:52:37.349Z,81.57
2018-12-13T10:55:06.479Z,83.07
2018-12-13T10:57:35.005Z,89.53
2018-12-13T11:00:04.356Z,81.60
2018-12-13T11:02:47.129Z,78.50
2018-12-13T11:05:15.770Z,72.53
2018-12-13T11:07:44.248Z,71.23
2018-12-13T11:10:12.851Z,71.57
2018-12-13T11:12:41.386Z,74.87
2018-12-13T11:15:09.868Z,71.70
2018-12-13T11:17:38.376Z,73.63
2018-12-13T11:20:06.883Z,72.80
2018-12-13T11:22:35.512Z,87.30
2018-12-13T11:25:04.694Z,81.33
2018-12-13T11:27:44.572Z,77.97
2018-12-13T11:30:25.464Z,80.03
2018-12-13T11:32:54.614Z,76.40
2018-12-13T11:35:23.103Z,75.57
2018-12-13T11:37:51.628Z,65.00
2018-12-13T11:40:20.190Z,60.90
2018-12-13T11:42:48.688Z,63.13
2018-12-13T11:45:17.675Z,62.67
2018-12-13T11:47:46.286Z,66.77
2018-12-13T11:50:15.188Z,60.57
2018-12-13T11:52:43.944Z,57.90
2018-12-13T11:55:43.847Z,60.13
2018-12-13T11:58:14.183Z,53.40
2018-12-13T12:00:42.930Z,58.20
2018-12-13T12:03:11.757Z,54.43
2018-12-13T12:05:40.565Z,68.27
2018-12-13T12:08:09.571Z,83.53
2018-12-13T12:10:38.417Z,60.77
2018-12-13T12:13:07.053Z,64.47
2018-12-13T12:15:36.263Z,82.93
2018-12-13T12:18:05.701Z,83.90
2018-12-13T12:20:34.574Z,83.67
2018-12-13T12:23:03.183Z,84.10
2018-12-13T12:25:31.979Z,86.07
2018-12-13T12:28:00.597Z,82.27
2018-12-13T12:30:29.150Z,85.30
2018-12-13T12:32:57.761Z,83.07
2018-12-13T12:35:26.415Z,79.10
2018-12-13T12:37:55.113Z,80.80
2018-12-13T12:40:23.859Z,78.17
2018-12-13T12:42:52.585Z,78.97
2018-12-13T12:45:21.124Z,75.80
2018-12-13T12:47:49.832Z,78.10
2018-12-13T12:50:18.513Z,77.87
2018-12-13T12:52:47.408Z,80.30
2018-12-13T12:55:16.037Z,79.33
2018-12-13T12:57:44.587Z,76.47
2018-12-13T13:00:13.364Z,73.53
2018-12-13T13:02:42.080Z,76.40
2018-12-13T13:05:10.835Z,76.10
2018-12-13T13:07:39.570Z,81.67
2018-12-13T13:10:08.260Z,79.63
2018-12-13T13:12:37.000Z,76.33
2018-12-13T13:15:05.918Z,78.63
2018-12-13T13:17:34.674Z,80.63
2018-12-13T13:20:03.761Z,76.97
2018-12-13T13:22:32.730Z,81.13
2018-12-13T13:25:01.376Z,78.47
2018-12-13T13:27:29.952Z,79.77
2018-12-13T13:29:58.782Z,80.70
2018-12-13T13:32:27.373Z,79.67
2018-12-13T13:34:56.018Z,81.57
2018-12-13T13:37:24.878Z,77.73
2018-12-13T13:39:53.592Z,74.27
2018-12-13T13:42:22.245Z,76.70
2018-12-13T13:44:55.127Z,78.17
2018-12-13T13:47:24.233Z,77.87
2018-12-13T13:49:53.178Z,77.73
2018-12-13T13:52:21.937Z,77.33
2018-12-13T13:54:50.622Z,78.23
2018-12-13T13:57:19.482Z,80.23
2018-12-13T13:59:48.299Z,79.13
2018-12-13T14:02:16.881Z,79.83
2018-12-13T14:04:45.642Z,76.67
2018-12-13T14:07:14.358Z,76.57
2018-12-13T14:09:42.943Z,70.97
2018-12-13T14:12:11.799Z,80.47
2018-12-13T14:14:40.384Z,79.60
2018-12-13T14:17:08.972Z,76.73
2018-12-13T14:19:37.445Z,74.67
2018-12-13T14:22:05.961Z,74.23
2018-12-13T14:24:34.617Z,76.00
2018-12-13T14:27:03.241Z,79.27
2018-12-13T14:29:31.747Z,83.93
2018-12-13T14:32:00.298Z,86.93
2018-12-13T14:34:28.887Z,84.50
2018-12-13T14:36:57.608Z,78.50
2018-12-13T14:39:26.197Z,83.33
2018-12-13T14:41:55.144Z,77.00
2018-12-13T14:44:23.739Z,71.80
2018-12-13T14:46:53.294Z,74.50
2018-12-13T14:49:21.782Z,75.63
2018-12-13T14:51:50.359Z,77.20
2018-12-13T14:54:18.954Z,76.37
2018-12-13T14:56:47.447Z,76.40
2018-12-13T14:59:16.062Z,76.87
2018-12-13T15:01:44.770Z,74.47
2018-12-13T15:04:13.262Z,77.47
2018-12-13T15:06:42.333Z,78.00
2018-12-13T15:09:11.366Z,86.50
2018-12-13T15:11:39.981Z,82.97
2018-12-13T15:14:08.557Z,80.70
2018-12-13T15:16:37.321Z,86.63
2018-12-13T15:19:05.920Z,92.33
2018-12-13T15:21:34.529Z,102.23
2018-12-13T15:24:03.126Z,103.90
2018-12-13T15:26:31.959Z,105.83
2018-12-13T15:29:00.793Z,109.03
2018-12-13T15:31:29.380Z,100.57
2018-12-13T15:33:57.959Z,97.90
2018-12-13T15:36:26.611Z,94.90
2018-12-13T15:38:55.468Z,97.43
2018-12-13T15:41:24.075Z,96.00
2018-12-13T15:43:52.965Z,93.57
2018-12-13T15:46:21.727Z,93.17
2018-12-13T15:48:50.520Z,98.10
2018-12-13T15:51:19.329Z,95.43
2018-12-13T15:53:48.117Z,96.00
2018-12-13T15:56:16.931Z,96.07
2018-12-13T15:58:45.554Z,101.60
2018-12-13T16:01:14.152Z,99.87
2018-12-13T16:03:42.865Z,95.00
2018-12-13T16:06:11.500Z,97.47
2018-12-13T16:08:40.316Z,98.97
2018-12-13T16:11:09.125Z,104.53
2018-12-13T16:13:37.829Z,107.47
2018-12-13T16:16:06.439Z,103.83
2018-12-13T16:18:35.350Z,102.80
2018-12-13T16:21:04.280Z,102.57
2018-12-13T16:23:34.021Z,106.13
2018-12-13T16:26:03.717Z,105.17
2018-12-13T16:28:32.593Z,105.60
2018-12-13T16:31:01.315Z,104.60
2018-12-13T16:33:30.061Z,103.27
2018-12-13T16:35:58.730Z,103.67
2018-12-13T16:38:27.393Z,105.37
2018-12-13T16:40:56.012Z,106.47
2018-12-13T16:43:24.639Z,108.97
2018-12-13T16:45:53.433Z,107.97
2018-12-13T16:48:22.053Z,103.57
2018-12-13T16:50:50.607Z,104.03
2018-12-13T16:53:19.504Z,105.87
2018-12-13T16:55:48.252Z,112.60
2018-12-13T16:58:17.017Z,116.53
2018-12-13T17:00:46.410Z,108.87
2018-12-13T17:03:26.244Z,113.67
2018-12-13T17:05:55.168Z,123.20
2018-12-13T17:08:23.938Z,116.03
2018-12-13T17:10:52.843Z,114.37
2018-12-13T17:13:21.489Z,110.30
2018-12-13T17:15:50.688Z,119.27
2018-12-13T17:18:20.433Z,115.97
2018-12-13T17:20:49.233Z,119.33
2018-12-13T17:23:18.008Z,111.63
2018-12-13T17:25:46.562Z,114.90
2018-12-13T17:28:15.139Z,117.80
2018-12-13T17:30:43.719Z,113.00
2018-12-13T17:33:12.544Z,117.83
2018-12-13T17:35:41.332Z,118.97
2018-12-13T17:38:10.228Z,120.67
2018-12-13T17:40:38.782Z,116.97
2018-12-13T17:43:08.083Z,125.37
2018-12-13T17:45:36.768Z,120.57
2018-12-13T17:48:05.337Z,125.93
2018-12-13T17:50:34.187Z,122.43
2018-12-13T17:53:02.953Z,124.13
2018-12-13T17:55:31.847Z,120.03
2018-12-13T17:58:00.571Z,122.30
2018-12-13T18:00:29.646Z,129.53
2018-12-13T18:02:58.241Z,120.50
2018-12-13T18:05:27.066Z,119.30
2018-12-13T18:07:55.928Z,123.43
2018-12-13T18:10:29.416Z,121.13
2018-12-13T18:12:55.311Z,121.77
2018-12-13T18:15:24.014Z,118.17
2018-12-13T18:17:52.963Z,117.57
2018-12-13T18:20:21.784Z,116.27
2018-12-13T18:22:50.479Z,111.23
2018-12-13T18:25:19.223Z,108.27
2018-12-13T18:27:47.857Z,107.17
2018-12-13T18:30:16.461Z,107.43
2018-12-13T18:32:45.817Z,102.57
2018-12-13T18:35:14.504Z,107.97
2018-12-13T18:37:43.117Z,103.90
2018-12-13T18:40:12.089Z,103.47
2018-12-13T18:42:40.763Z,103.60
2018-12-13T18:45:09.654Z,109.47
2018-12-13T18:47:38.444Z,112.80
2018-12-13T18:50:08.021Z,104.47
2018-12-13T18:52:36.733Z,104.73
2018-12-13T18:55:05.670Z,100.83
2018-12-13T18:57:34.393Z,102.27
2018-12-13T19:00:03.381Z,101.57
2018-12-13T19:02:31.977Z,104.47
2018-12-13T19:05:00.911Z,106.33
2018-12-13T19:07:29.541Z,106.53
2018-12-13T19:09:58.448Z,102.57
2018-12-13T19:12:27.390Z,102.10
2018-12-13T19:14:56.038Z,103.17
2018-12-13T19:17:25.032Z,103.73
2018-12-13T19:19:53.613Z,104.93
2018-12-13T19:22:22.503Z,105.83
2018-12-13T19:24:51.394Z,120.10
2018-12-13T19:27:20.077Z,115.50
2018-12-13T19:29:49.006Z,121.23
2018-12-13T19:32:17.580Z,136.93
2018-12-13T19:34:46.239Z,136.40
2018-12-13T19:37:14.838Z,139.60
2018-12-13T19:39:43.502Z,140.50
2018-12-13T19:42:12.144Z,137.60
2018-12-13T19:44:41.002Z,138.20
2018-12-13T19:47:09.755Z,136.67
2018-12-13T19:49:38.976Z,134.80
2018-12-13T19:52:08.455Z,139.60
2018-12-13T19:54:37.201Z,139.93
2018-12-13T19:57:06.024Z,141.63
2018-12-13T19:59:34.877Z,144.90
2018-12-13T20:02:04.687Z,146.33
2018-12-13T20:04:33.566Z,140.53
2018-12-13T20:07:02.425Z,151.60
2018-12-13T20:09:31.391Z,168.13
2018-12-13T20:12:00.242Z,177.33
2018-12-13T20:14:29.187Z,187.13
2018-12-13T20:16:58.093Z,178.00
2018-12-13T20:19:27.200Z,162.37
2018-12-13T20:21:56.368Z,144.20
2018-12-13T20:24:25.405Z,136.00
2018-12-13T20:26:54.500Z,140.87
2018-12-13T20:29:23.465Z,134.07
2018-12-13T20:31:52.252Z,141.00
2018-12-13T20:34:20.866Z,140.10
2018-12-13T20:36:49.562Z,146.33
2018-12-13T20:39:18.153Z,154.57
2018-12-13T20:41:47.095Z,152.50
2018-12-13T20:44:15.767Z,146.67
2018-12-13T20:46:44.470Z,137.63
2018-12-13T20:49:13.514Z,135.93
2018-12-13T20:51:42.201Z,137.07
2018-12-13T20:54:11.042Z,132.50
2018-12-13T20:56:39.950Z,125.60
2018-12-13T20:59:08.652Z,141.17
2018-12-13T21:01:37.946Z,138.27
2018-12-13T21:04:06.629Z,131.93
2018-12-13T21:06:35.594Z,132.00
2018-12-13T21:09:06.598Z,131.53
2018-12-13T21:11:35.215Z,129.43
2018-12-13T21:14:04.031Z,127.73
2018-12-13T21:16:32.957Z,130.67
2018-12-13T21:19:01.685Z,132.53
2018-12-13T21:21:30.731Z,126.40
2018-12-13T21:23:59.601Z,131.60
2018-12-13T21:26:28.210Z,134.43
2018-12-13T21:28:57.007Z,123.50
2018-12-13T21:31:25.885Z,125.30
2018-12-13T21:33:54.813Z,140.97
2018-12-13T21:36:23.470Z,133.90
2018-12-13T21:38:52.439Z,139.53
2018-12-13T21:41:21.401Z,131.77
2018-12-13T21:43:50.933Z,137.23
2018-12-13T21:46:19.750Z,127.87
2018-12-13T21:48:48.674Z,135.10
2018-12-13T21:51:18.084Z,128.77
2018-12-13T21:53:47.531Z,130.07
2018-12-13T21:56:16.128Z,131.30
2018-12-13T21:58:44.800Z,130.37
2018-12-13T22:01:13.640Z,137.40
2018-12-13T22:03:42.428Z,164.10
2018-12-13T22:06:11.355Z,164.03
2018-12-13T22:08:40.075Z,167.93
2018-12-13T22:11:08.734Z,154.20
2018-12-13T22:13:43.701Z,132.40
2018-12-13T22:16:12.767Z,145.00
2018-12-13T22:18:42.135Z,152.10
2018-12-13T22:21:10.833Z,143.47
2018-12-13T22:23:39.593Z,149.67
2018-12-13T22:26:08.422Z,161.27
2018-12-13T22:28:37.005Z,152.30
2018-12-13T22:31:06.276Z,152.03
2018-12-13T22:33:36.361Z,152.07
2018-12-13T22:36:06.264Z,144.97
2018-12-13T22:38:35.117Z,146.57
2018-12-13T22:41:04.062Z,139.97
2018-12-13T22:43:33.112Z,145.47
2018-12-13T22:46:04.508Z,146.87
2018-12-13T22:48:33.555Z,148.37
2018-12-13T22:51:02.612Z,148.53
2018-12-13T22:53:31.219Z,151.30
2018-12-13T22:56:00.236Z,150.83
2018-12-13T22:58:29.079Z,143.10
2018-12-13T23:00:57.910Z,141.77
2018-12-13T23:03:26.827Z,130.33
2018-12-13T23:05:55.807Z,127.53
2018-12-13T23:08:24.624Z,132.33
2018-12-13T23:10:53.908Z,125.03
2018-12-13T23:13:22.833Z,134.83
2018-12-13T23:15:51.872Z,128.83
2018-12-13T23:18:20.714Z,132.43
2018-12-13T23:20:49.428Z,137.47
2018-12-13T23:23:18.260Z,133.60
2018-12-13T23:25:46.976Z,130.53
2018-12-13T23:28:15.585Z,125.83
2018-12-13T23:30:44.401Z,119.07
2018-12-13T23:33:13.088Z,124.33
2018-12-13T23:35:41.874Z,113.87
2018-12-13T23:38:10.643Z,107.87
2018-12-13T23:40:39.524Z,105.10
2018-12-13T23:43:09.105Z,104.27
2018-12-13T23:45:39.016Z,115.00
2018-12-13T23:48:07.902Z,119.57
2018-12-13T23:50:36.681Z,140.13
2018-12-13T23:53:05.422Z,137.13
2018-12-13T23:55:34.209Z,130.73
2018-12-13T23:58:03.165Z,133.00
